createdAt,value
2022-12-15T00:00:34.313Z,94881.06
2022-12-15T00:03:24.587Z,94888.88
2022-12-15T00:06:10.540Z,94883.00
2022-12-15T00:08:56.509Z,94885.88
2022-12-15T00:11:42.838Z,94886.03
2022-12-15T00:14:28.846Z,94891.38
2022-12-15T00:17:15.761Z,94888.94
2022-12-15T00:20:01.832Z,94892.22
2022-12-15T00:22:47.903Z,94900.84
2022-12-15T00:25:33.776Z,94902.13
2022-12-15T00:28:19.648Z,94905.00
2022-12-15T00:31:05.670Z,94904.88
2022-12-15T00:33:52.919Z,94912.41
2022-12-15T00:36:38.679Z,94914.84
2022-12-15T00:39:07.008Z,94917.44
2022-12-15T00:41:35.323Z,94922.81
2022-12-15T00:44:03.640Z,94920.22
2022-12-15T00:46:51.921Z,94915.16
2022-12-15T00:49:38.903Z,94921.97
2022-12-15T00:52:24.708Z,94923.63
2022-12-15T00:55:10.523Z,94916.50
2022-12-15T00:57:57.269Z,94913.75
2022-12-15T01:00:43.701Z,94935.41
2022-12-15T01:03:31.787Z,94925.94
2022-12-15T01:06:19.416Z,94930.19
2022-12-15T01:09:05.297Z,94940.63
2022-12-15T01:11:51.201Z,94947.47
2022-12-15T01:14:37.320Z,94946.63
2022-12-15T01:17:23.231Z,94936.22
2022-12-15T01:20:09.018Z,94947.47
2022-12-15T01:22:41.007Z,94937.88
2022-12-15T01:25:11.066Z,94939.66
2022-12-15T01:27:39.477Z,94939.50
2022-12-15T01:30:10.580Z,94937.72
2022-12-15T01:32:44.280Z,94948.97
2022-12-15T01:35:14.299Z,94957.59
2022-12-15T01:37:43.991Z,94956.78
2022-12-15T01:40:32.810Z,94952.53
2022-12-15T01:43:01.188Z,94959.53
2022-12-15T01:45:50.283Z,94958.72
2022-12-15T01:48:25.207Z,94959.53
2022-12-15T01:51:01.415Z,94949.91
2022-12-15T01:53:34.607Z,94936.06
2022-12-15T01:56:06.203Z,94937.72
2022-12-15T01:58:34.843Z,94956.63
2022-12-15T02:01:04.359Z,94961.31
2022-12-15T02:03:33.383Z,94977.09
2022-12-15T02:06:03.960Z,94979.69
2022-12-15T02:08:33.896Z,94984.91
2022-12-15T02:11:15.736Z,94987.53
2022-12-15T02:13:55.257Z,94986.72
2022-12-15T02:16:31.723Z,94981.34
2022-12-15T02:19:10.784Z,94973.53
2022-12-15T02:21:47.628Z,94969.00
2022-12-15T02:24:49.817Z,94975.03
2022-12-15T02:27:43.412Z,94985.59
2022-12-15T02:30:41.358Z,94988.19
2022-12-15T02:33:21.419Z,94979.56
2022-12-15T02:35:57.548Z,94988.34
2022-12-15T02:38:33.822Z,94990.00
2022-12-15T02:41:04.332Z,94985.59
2022-12-15T02:43:36.723Z,94990.78
2022-12-15T02:46:20.387Z,95006.56
2022-12-15T02:49:01.075Z,94979.16
2022-12-15T02:51:44.198Z,95004.03
2022-12-15T02:54:51.088Z,94981.03
2022-12-15T02:57:25.827Z,94996.78
2022-12-15T03:00:01.679Z,94997.78
2022-12-15T03:02:34.996Z,95006.66
2022-12-15T03:05:04.074Z,95016.13
2022-12-15T03:07:32.407Z,95018.63
2022-12-15T03:10:04.527Z,95001.03
2022-12-15T03:12:33.903Z,95004.31
2022-12-15T03:15:02.280Z,95011.16
2022-12-15T03:17:31.998Z,95014.44
2022-12-15T03:20:01.210Z,95018.69
2022-12-15T03:22:29.681Z,95014.31
2022-12-15T03:24:57.996Z,95045.56
2022-12-15T03:27:26.449Z,95026.78
2022-12-15T03:29:54.771Z,95028.59
2022-12-15T03:32:23.120Z,95029.25
2022-12-15T03:34:52.820Z,95017.03
2022-12-15T03:37:21.137Z,95029.25
2022-12-15T03:39:49.715Z,95031.88
2022-12-15T03:42:38.448Z,95042.44
2022-12-15T03:45:07.600Z,95037.22
2022-12-15T03:47:35.925Z,95046.97
2022-12-15T03:50:06.703Z,95046.00
2022-12-15T03:52:36.015Z,95046.00
2022-12-15T03:55:05.012Z,95051.22
2022-12-15T03:57:33.339Z,95066.84
2022-12-15T04:00:01.723Z,95054.78
2022-12-15T04:02:30.159Z,95058.19
2022-12-15T04:04:58.611Z,95060.00
2022-12-15T04:07:28.301Z,95061.91
2022-12-15T04:09:56.608Z,95071.41
2022-12-15T04:12:25.000Z,95057.38
2022-12-15T04:14:54.027Z,95073.81
2022-12-15T04:17:22.348Z,95066.84
2022-12-15T04:20:08.241Z,95058.06
2022-12-15T04:22:43.878Z,95056.44
2022-12-15T04:25:32.512Z,95067.66
2022-12-15T04:28:18.333Z,95076.16
2022-12-15T04:31:08.368Z,95081.94
2022-12-15T04:33:56.228Z,95071.81
2022-12-15T04:36:42.674Z,95083.19
2022-12-15T04:39:29.823Z,95082.53
2022-12-15T04:42:17.607Z,95091.97
2022-12-15T04:45:04.145Z,95090.19
2022-12-15T04:47:49.931Z,95100.59
2022-12-15T04:50:35.847Z,95114.59
2022-12-15T04:53:29.007Z,95115.41
2022-12-15T04:56:18.735Z,95118.16
2022-12-15T04:59:05.579Z,95116.22
2022-12-15T05:01:52.044Z,95108.41
2022-12-15T05:04:38.424Z,95108.41
2022-12-15T05:07:24.524Z,95121.44
2022-12-15T05:10:14.886Z,95109.38
2022-12-15T05:13:02.819Z,95102.53
2022-12-15T05:15:49.160Z,95113.91
2022-12-15T05:18:35.108Z,95119.25
2022-12-15T05:21:21.014Z,95118.44
2022-12-15T05:24:06.987Z,95112.25
2022-12-15T05:26:53.446Z,95127.91
2022-12-15T05:29:40.908Z,95140.91
2022-12-15T05:32:09.491Z,95134.91
2022-12-15T05:34:38.315Z,95141.09
2022-12-15T05:37:07.654Z,95143.81
2022-12-15T05:39:36.721Z,95140.53
2022-12-15T05:42:05.320Z,95133.53
2022-12-15T05:44:35.023Z,95119.69
2022-12-15T05:47:04.824Z,95125.72
2022-12-15T05:49:33.470Z,95122.31
2022-12-15T05:52:01.804Z,95135.31
2022-12-15T05:54:30.229Z,95138.75
2022-12-15T05:56:58.704Z,95135.16
2022-12-15T05:59:27.052Z,95138.63
2022-12-15T06:01:56.799Z,95150.66
2022-12-15T06:04:25.644Z,95146.28
2022-12-15T06:06:54.003Z,95157.41
2022-12-15T06:09:22.315Z,95164.22
2022-12-15T06:11:50.654Z,95166.16
2022-12-15T06:14:19.196Z,95161.75
2022-12-15T06:16:53.646Z,95171.22
2022-12-15T06:19:24.456Z,95167.66
2022-12-15T06:21:52.753Z,95170.25
2022-12-15T06:24:21.236Z,95166.69
2022-12-15T06:26:50.049Z,95168.50
2022-12-15T06:29:19.494Z,95159.84
2022-12-15T06:31:48.205Z,95172.19
2022-12-15T06:34:18.026Z,95163.41
2022-12-15T06:36:47.715Z,95166.97
2022-12-15T06:39:17.092Z,95176.44
2022-12-15T06:41:45.596Z,95179.03
2022-12-15T06:44:15.014Z,95173.16
2022-12-15T06:46:45.733Z,95178.38
2022-12-15T06:49:14.883Z,95180.97
2022-12-15T06:51:44.841Z,95180.84
2022-12-15T06:54:14.559Z,95194.53
2022-12-15T06:56:43.365Z,95199.59
2022-12-15T06:59:12.864Z,95195.34
2022-12-15T07:01:42.934Z,95199.88
2022-12-15T07:04:12.050Z,95197.28
2022-12-15T07:06:42.319Z,95201.00
2022-12-15T07:09:17.246Z,95205.38
2022-12-15T07:11:49.251Z,95208.94
2022-12-15T07:14:19.531Z,95211.00
2022-12-15T07:16:47.864Z,95214.41
2022-12-15T07:19:16.328Z,95224.03
2022-12-15T07:21:45.081Z,95223.22
2022-12-15T07:24:15.133Z,95228.41
2022-12-15T07:26:44.538Z,95235.25
2022-12-15T07:29:18.137Z,95229.09
2022-12-15T07:31:49.807Z,95235.25
2022-12-15T07:34:18.428Z,95239.09
2022-12-15T07:36:51.891Z,95240.22
2022-12-15T07:39:22.642Z,95248.16
2022-12-15T07:41:51.052Z,95238.84
2022-12-15T07:44:19.460Z,95230.19
2022-12-15T07:46:49.227Z,95242.38
2022-12-15T07:49:18.648Z,95246.09
2022-12-15T07:51:47.208Z,95251.19
2022-12-15T07:54:17.068Z,95232.94
2022-12-15T07:56:50.146Z,95227.56
2022-12-15T07:59:19.638Z,95231.16
2022-12-15T08:01:48.603Z,95219.94
2022-12-15T08:04:17.354Z,95220.88
2022-12-15T08:06:45.775Z,95229.38
2022-12-15T08:09:14.216Z,95231.97
2022-12-15T08:11:43.138Z,95235.56
2022-12-15T08:14:17.357Z,95236.50
2022-12-15T08:16:47.459Z,95228.00
2022-12-15T08:19:17.002Z,95225.94
2022-12-15T08:21:46.791Z,95232.78
2022-12-15T08:24:16.392Z,95228.41
2022-12-15T08:26:50.077Z,95236.06
2022-12-15T08:32:09.140Z,95253.06
2022-12-15T08:34:37.782Z,95259.00
2022-12-15T08:37:06.128Z,95280.50
2022-12-15T08:39:34.504Z,95294.22
2022-12-15T08:42:02.880Z,95303.66
2022-12-15T08:44:32.661Z,95313.28
2022-12-15T08:47:00.993Z,95312.72
2022-12-15T08:49:32.497Z,95313.53
2022-12-15T08:52:00.841Z,95310.66
2022-12-15T08:54:29.385Z,95309.44
2022-12-15T08:56:57.738Z,95310.00
2022-12-15T08:59:26.283Z,95314.91
2022-12-15T09:01:56.118Z,95313.97
2022-12-15T09:04:24.883Z,95317.94
2022-12-15T09:06:54.325Z,95317.69
2022-12-15T09:09:23.278Z,95320.84
2022-12-15T09:11:51.761Z,95318.75
2022-12-15T09:14:25.676Z,95316.69
2022-12-15T09:16:58.659Z,95314.09
2022-12-15T09:19:27.124Z,95314.78
2022-12-15T09:21:55.719Z,95319.84
2022-12-15T09:24:34.001Z,95313.69
2022-12-15T09:27:04.290Z,95303.66
2022-12-15T09:29:33.046Z,95299.69
2022-12-15T09:32:07.621Z,95302.97
2022-12-15T09:34:39.250Z,95306.81
2022-12-15T09:37:07.666Z,95306.66
2022-12-15T09:39:39.333Z,95301.59
2022-12-15T09:42:23.932Z,95287.88
2022-12-15T09:45:03.481Z,95285.81
2022-12-15T09:47:41.678Z,95279.34
2022-12-15T09:50:14.032Z,95270.16
2022-12-15T09:52:49.939Z,95263.69
2022-12-15T09:55:22.062Z,95265.88
2022-12-15T09:57:55.049Z,95264.78
2022-12-15T10:00:25.814Z,95255.97
2022-12-15T10:03:28.987Z,95254.47
2022-12-15T10:06:22.025Z,95241.56
2022-12-15T10:08:57.332Z,95243.09
2022-12-15T10:11:39.559Z,95233.47
2022-12-15T10:14:16.820Z,95244.03
2022-12-15T10:16:55.464Z,95245.84
2022-12-15T10:19:30.526Z,95245.03
2022-12-15T10:21:59.645Z,95244.75
2022-12-15T10:27:44.259Z,95245.03
2022-12-15T10:30:14.409Z,95248.06
2022-12-15T10:35:42.068Z,95241.75
2022-12-15T10:38:24.573Z,95237.94
2022-12-15T10:40:57.301Z,95239.81
2022-12-15T10:43:31.335Z,95233.78
2022-12-15T10:46:05.880Z,95233.78
2022-12-15T10:48:34.347Z,95236.78
2022-12-15T10:51:16.542Z,95238.28
2022-12-15T10:53:50.520Z,95213.56
2022-12-15T10:59:42.525Z,95211.63
2022-12-15T11:02:36.638Z,95209.47
2022-12-15T11:05:18.357Z,95200.81
2022-12-15T11:07:53.227Z,95197.09
2022-12-15T11:10:24.023Z,95193.38
2022-12-15T11:13:13.159Z,95179.38
2022-12-15T11:15:50.804Z,95182.53
2022-12-15T11:18:28.700Z,95176.34
2022-12-15T11:21:03.247Z,95181.28
2022-12-15T11:24:03.135Z,95179.34
2022-12-15T11:26:42.206Z,95183.56
2022-12-15T11:29:19.983Z,95186.72
2022-12-15T11:31:49.503Z,95191.66
2022-12-15T11:34:21.425Z,95207.31
2022-12-15T11:37:04.014Z,95213.34
2022-12-15T11:39:48.680Z,95202.38
2022-12-15T11:42:25.821Z,95186.91
2022-12-15T11:45:03.849Z,95174.66
2022-12-15T11:47:42.613Z,95180.41
2022-12-15T11:50:34.929Z,95184.78
2022-12-15T11:53:38.038Z,95175.47
2022-12-15T11:56:18.537Z,95162.56
2022-12-15T11:58:57.569Z,95159.28
2022-12-15T12:01:53.940Z,95161.91
2022-12-15T12:04:29.913Z,95167.25
2022-12-15T12:07:12.429Z,95167.41
2022-12-15T12:09:52.198Z,95157.25
2022-12-15T12:12:27.181Z,95154.13
2022-12-15T12:15:17.925Z,95149.03
2022-12-15T12:17:51.104Z,95140.13
2022-12-15T12:20:22.382Z,95135.59
2022-12-15T12:23:02.435Z,95135.44
2022-12-15T12:25:39.847Z,95134.19
2022-12-15T12:28:18.046Z,95117.41
2022-12-15T12:30:50.712Z,95113.16
2022-12-15T12:33:33.412Z,95104.50
2022-12-15T12:36:08.329Z,95095.59
2022-12-15T12:38:45.823Z,95106.69
2022-12-15T12:41:33.335Z,95110.41
2022-12-15T12:44:13.389Z,95107.44
2022-12-15T12:46:48.980Z,95097.00
2022-12-15T12:49:28.198Z,95078.06
2022-12-15T12:51:59.619Z,95071.06
2022-12-15T12:54:51.927Z,95075.44
2022-12-15T12:57:45.642Z,95090.25
2022-12-15T13:00:27.817Z,95094.66
2022-12-15T13:03:16.496Z,95103.44
2022-12-15T13:05:51.268Z,95099.78
2022-12-15T13:08:46.586Z,95086.91
2022-12-15T13:11:56.827Z,95088.38
2022-12-15T13:14:51.649Z,95090.03
2022-12-15T13:17:33.230Z,95084.69
2022-12-15T13:20:30.201Z,95075.06
2022-12-15T13:23:32.657Z,95073.56
2022-12-15T13:26:14.413Z,95070.13
2022-12-15T13:28:50.634Z,95074.66
2022-12-15T13:31:31.167Z,95076.31
2022-12-15T13:34:13.789Z,95090.47
2022-12-15T13:36:55.189Z,95083.63
2022-12-15T13:39:54.879Z,95086.38
2022-12-15T13:42:36.013Z,95078.84
2022-12-15T13:45:50.248Z,95083.22
2022-12-15T13:48:29.251Z,95074.59
2022-12-15T13:51:05.646Z,95078.16
2022-12-15T13:53:43.361Z,95080.91
2022-12-15T13:56:29.659Z,95079.72
2022-12-15T13:59:07.096Z,95082.31
2022-12-15T14:01:35.747Z,95083.13
2022-12-15T14:04:16.039Z,95082.31
2022-12-15T14:06:50.744Z,95066.69
2022-12-15T14:09:28.231Z,95063.09
2022-12-15T14:12:46.843Z,95055.28
2022-12-15T14:15:20.520Z,95049.25
2022-12-15T14:17:53.474Z,95048.56
2022-12-15T14:20:24.582Z,95055.56
2022-12-15T14:22:55.004Z,95056.84
2022-12-15T14:25:25.716Z,95060.41
2022-12-15T14:27:54.417Z,95055.63
2022-12-15T14:30:29.416Z,95055.91
2022-12-15T14:33:04.816Z,95051.38
2022-12-15T14:35:58.684Z,95044.34
2022-12-15T14:38:33.407Z,95049.56
2022-12-15T14:41:04.165Z,95047.94
2022-12-15T14:43:36.548Z,95040.13
2022-12-15T14:46:11.097Z,95045.19
2022-12-15T14:48:44.121Z,95041.75
2022-12-15T14:51:15.108Z,95041.75
2022-12-15T14:53:53.071Z,95033.94
2022-12-15T14:56:30.651Z,95037.38
2022-12-15T14:59:03.859Z,95032.97
2022-12-15T15:01:40.182Z,95036.53
2022-12-15T15:03:04.065Z,95243.41
2022-12-15T15:03:04.399Z,95247.63
2022-12-15T15:04:25.884Z,95021.22
2022-12-15T15:06:56.938Z,95025.59
2022-12-15T15:09:30.837Z,95021.50
2022-12-15T15:12:04.118Z,95027.69
2022-12-15T15:14:34.959Z,95020.00
2022-12-15T15:17:09.858Z,95022.75
2022-12-15T15:19:41.351Z,95018.50
2022-12-15T15:22:42.524Z,95024.69
2022-12-15T15:25:40.715Z,95022.66
2022-12-15T15:28:23.343Z,95031.28
2022-12-15T15:30:56.499Z,95022.66
2022-12-15T15:33:26.936Z,95033.34
2022-12-15T15:35:58.117Z,95012.50
2022-12-15T15:38:31.727Z,95016.78
2022-12-15T15:41:03.930Z,95017.72
2022-12-15T15:43:33.091Z,95019.50
2022-12-15T15:46:05.688Z,95029.25
2022-12-15T15:48:37.355Z,95029.25
2022-12-15T15:51:06.781Z,95024.06
2022-12-15T15:53:36.603Z,95013.75
2022-12-15T15:56:09.985Z,95025.84
2022-12-15T15:58:38.359Z,95022.56
2022-12-15T16:01:12.709Z,95018.97
2022-12-15T16:03:42.003Z,95026.53
2022-12-15T16:06:17.151Z,95010.06
2022-12-15T16:08:46.653Z,95004.69
2022-12-15T16:11:16.418Z,95010.88
2022-12-15T16:13:45.219Z,95007.31
2022-12-15T16:16:19.275Z,94992.50
2022-12-15T16:18:48.059Z,94989.91
2022-12-15T16:21:17.879Z,94982.22
2022-12-15T16:23:48.712Z,94977.00
2022-12-15T16:26:26.743Z,94984.84
2022-12-15T16:28:55.363Z,94987.44
2022-12-15T16:31:35.612Z,94980.88
2022-12-15T16:34:05.861Z,94970.72
2022-12-15T16:36:35.083Z,94975.28
2022-12-15T16:39:03.462Z,94982.94
2022-12-15T16:41:34.446Z,94981.81
2022-12-15T16:44:03.547Z,94979.09
2022-12-15T16:46:32.367Z,94966.88
2022-12-15T16:49:01.499Z,94979.09
2022-12-15T16:51:38.907Z,94974.00
2022-12-15T16:54:07.944Z,94978.28
2022-12-15T16:56:38.000Z,94974.00
2022-12-15T16:59:32.080Z,94984.44
2022-12-15T17:01:56.974Z,94971.28
2022-12-15T17:04:26.552Z,94962.63
2022-12-15T17:06:55.073Z,94961.78
2022-12-15T17:09:26.518Z,94963.72
2022-12-15T17:11:56.917Z,94959.38
2022-12-15T17:14:25.237Z,94960.19
2022-12-15T17:16:55.090Z,94960.97
2022-12-15T17:19:23.509Z,94960.84
2022-12-15T17:21:54.558Z,94961.66
2022-12-15T17:24:23.473Z,94969.47
2022-12-15T17:26:52.122Z,94963.31
2022-12-15T17:29:25.165Z,94965.06
2022-12-15T17:31:53.910Z,94958.25
2022-12-15T17:34:30.226Z,94968.66
2022-12-15T17:37:02.186Z,94973.06
2022-12-15T17:39:31.144Z,94960.97
2022-12-15T17:42:01.423Z,94961.66
2022-12-15T17:44:35.627Z,94967.84
2022-12-15T17:47:06.715Z,94962.63
2022-12-15T17:49:37.612Z,94965.25
2022-12-15T17:52:16.446Z,94962.47
2022-12-15T17:54:45.113Z,94961.66
2022-12-15T17:57:13.685Z,94964.56
2022-12-15T17:59:43.455Z,94962.09
2022-12-15T18:02:14.173Z,94960.44
2022-12-15T18:04:43.625Z,94964.03
2022-12-15T18:07:18.092Z,94964.84
2022-12-15T18:09:47.692Z,94963.91
2022-12-15T18:12:19.074Z,94961.28
2022-12-15T18:14:49.168Z,94970.06
2022-12-15T18:17:17.551Z,94958.81
2022-12-15T18:19:46.541Z,94958.97
2022-12-15T18:22:20.569Z,94944.28
2022-12-15T18:24:51.767Z,94954.72
2022-12-15T18:27:23.523Z,94942.53
2022-12-15T18:29:53.860Z,94932.91
2022-12-15T18:32:24.722Z,94930.16
2022-12-15T18:34:53.691Z,94919.63
2022-12-15T18:37:24.679Z,94914.41
2022-12-15T18:39:53.279Z,94915.22
2022-12-15T18:42:23.047Z,94906.41
2022-12-15T18:44:54.524Z,94910.66
2022-12-15T18:47:24.930Z,94911.63
2022-12-15T18:49:53.410Z,94906.41
2022-12-15T18:52:26.507Z,94906.28
2022-12-15T18:54:57.277Z,94896.66
2022-12-15T18:57:31.042Z,94894.06
2022-12-15T19:00:04.349Z,94890.66
2022-12-15T19:02:32.865Z,94884.47
2022-12-15T19:05:01.303Z,94881.22
2022-12-15T19:07:29.687Z,94877.63
2022-12-15T19:09:58.251Z,94870.78
2022-12-15T19:12:26.615Z,94869.00
2022-12-15T19:14:55.483Z,94859.84
2022-12-15T19:17:43.071Z,94857.38
2022-12-15T19:20:35.906Z,94858.84
2022-12-15T19:23:04.616Z,94855.16
2022-12-15T19:25:34.076Z,94851.72
2022-12-15T19:28:02.542Z,94851.56
2022-12-15T19:30:35.899Z,94851.56
2022-12-15T19:33:10.000Z,94851.72
2022-12-15T19:35:39.670Z,94846.34
2022-12-15T19:38:08.854Z,94848.00
2022-12-15T19:40:38.536Z,94842.63
2022-12-15T19:43:07.214Z,94842.47
2022-12-15T19:45:35.637Z,94827.84
2022-12-15T19:48:04.114Z,94821.78
2022-12-15T19:50:36.672Z,94814.94
2022-12-15T19:53:11.899Z,94813.16
2022-12-15T19:55:41.009Z,94805.19
2022-12-15T19:58:27.558Z,94792.16
2022-12-15T20:00:58.590Z,94784.19
2022-12-15T20:03:28.354Z,94788.44
2022-12-15T20:05:59.907Z,94795.28
2022-12-15T20:08:33.792Z,94786.50
2022-12-15T20:11:02.289Z,94790.75
2022-12-15T20:13:30.988Z,94784.56
2022-12-15T20:15:59.629Z,94777.41
2022-12-15T20:18:28.018Z,94777.41
2022-12-15T20:20:59.229Z,94775.63
2022-12-15T20:23:29.489Z,94769.44
2022-12-15T20:25:58.613Z,94774.66
2022-12-15T20:28:29.427Z,94771.09
2022-12-15T20:30:59.076Z,94777.13
2022-12-15T20:33:27.510Z,94768.34
2022-12-15T20:35:56.097Z,94770.94
2022-12-15T20:38:30.440Z,94765.56
2022-12-15T20:41:00.046Z,94753.38
2022-12-15T20:43:32.051Z,94750.75
2022-12-15T20:46:06.110Z,94745.56
2022-12-15T20:48:36.589Z,94754.19
2022-12-15T20:51:09.510Z,94743.75
2022-12-15T20:53:39.910Z,94737.72
2022-12-15T20:56:09.232Z,94734.28
2022-12-15T20:58:40.615Z,94739.34
2022-12-15T21:01:23.915Z,94738.41
2022-12-15T21:03:55.374Z,94736.44
2022-12-15T21:06:25.114Z,94732.88
2022-12-15T21:08:55.626Z,94730.44
2022-12-15T21:11:26.720Z,94732.88
2022-12-15T21:13:58.840Z,94725.88
2022-12-15T21:16:29.960Z,94722.44
2022-12-15T21:21:49.316Z,94708.44
2022-12-15T21:24:23.990Z,94719.69
2022-12-15T21:26:53.770Z,94714.31
2022-12-15T21:29:25.439Z,94713.53
2022-12-15T21:31:54.445Z,94718.56
2022-12-15T21:34:22.846Z,94716.78
2022-12-15T21:36:54.703Z,94728.97
2022-12-15T21:39:29.413Z,94717.75
2022-12-15T21:42:00.879Z,94724.09
2022-12-15T21:44:29.794Z,94730.91
2022-12-15T21:46:58.253Z,94730.09
2022-12-15T21:49:26.337Z,94724.09
2022-12-15T21:51:57.878Z,94730.09
2022-12-15T21:54:31.759Z,94728.97
2022-12-15T21:57:00.855Z,94734.38
2022-12-15T21:59:31.415Z,94728.63
2022-12-15T22:02:01.395Z,94722.75
2022-12-15T22:04:31.752Z,94710.41
2022-12-15T22:07:00.070Z,94713.66
2022-12-15T22:09:29.886Z,94715.28
2022-12-15T22:11:58.486Z,94717.88
2022-12-15T22:14:29.756Z,94731.09
2022-12-15T22:16:59.088Z,94725.22
2022-12-15T22:19:27.569Z,94719.13
2022-12-15T22:21:55.918Z,94722.19
2022-12-15T22:24:24.265Z,94713.53
2022-12-15T22:26:53.997Z,94709.59
2022-12-15T22:29:24.377Z,94705.53
2022-12-15T22:31:52.890Z,94694.97
2022-12-15T22:34:26.509Z,94698.53
2022-12-15T22:36:55.073Z,94690.84
2022-12-15T22:39:23.494Z,94684.81
2022-12-15T22:41:53.651Z,94689.09
2022-12-15T22:44:24.825Z,94678.50
2022-12-15T22:46:55.757Z,94680.94
2022-12-15T22:49:27.984Z,94670.38
2022-12-15T22:51:56.345Z,94668.59
2022-12-15T22:54:26.280Z,94683.91
2022-12-15T22:57:00.490Z,94677.72
2022-12-15T22:59:32.592Z,94677.56
2022-12-15T23:02:02.231Z,94679.22
2022-12-15T23:04:31.176Z,94668.28
2022-12-15T23:07:00.276Z,94679.53
2022-12-15T23:09:28.648Z,94670.09
2022-12-15T23:11:58.974Z,94668.28
2022-12-15T23:14:41.552Z,94678.56
2022-12-15T23:17:10.222Z,94679.38
2022-12-15T23:19:38.571Z,94673.50
2022-12-15T23:22:06.912Z,94673.28
2022-12-15T23:24:35.276Z,94671.94
2022-12-15T23:27:05.056Z,94671.66
2022-12-15T23:29:33.526Z,94674.94
2022-12-15T23:32:01.858Z,94672.84
2022-12-15T23:34:30.214Z,94673.34
2022-12-15T23:36:58.615Z,94676.09
2022-12-15T23:39:27.073Z,94676.41
2022-12-15T23:41:55.378Z,94671.69
2022-12-15T23:44:25.135Z,94672.84
2022-12-15T23:46:53.551Z,94670.22
2022-12-15T23:49:54.170Z,94670.22
2022-12-15T23:52:24.084Z,94670.91
2022-12-15T23:54:52.414Z,94674.47
2022-12-15T23:57:20.772Z,94670.53
2022-12-15T23:59:50.426Z,94674.25
